Time;durP1;ratioP1;P1;durP2;ratioP2;P2;SDS_P1;SDS_P2;PMS_P1;PMS_P2;Temp;Humidity;BMP_temperature;BMP_pressure;BME280_temperature;BME280_humidity;BME280_pressure;Samples;Min_cycle;Max_cycle;Signal;HPM_P1;HPM_P2
2024/03/07 00:01:10;;;;;;;16.3;11.5;;;;;;;;;;;;;
2024/03/07 00:03:35;;;;;;;16.9;11.5;;;;;;;;;;;;;
2024/03/07 00:06:00;;;;;;;14.7;10.5;;;;;;;;;;;;;
2024/03/07 00:08:25;;;;;;;13;10.3;;;;;;;;;;;;;
2024/03/07 00:10:50;;;;;;;13.6;8.8;;;;;;;;;;;;;
2024/03/07 00:13:15;;;;;;;11.8;8.8;;;;;;;;;;;;;
2024/03/07 00:15:41;;;;;;;11.5;9.1;;;;;;;;;;;;;
2024/03/07 00:18:06;;;;;;;11.6;8.6;;;;;;;;;;;;;
2024/03/07 00:20:31;;;;;;;9.7;7.6;;;;;;;;;;;;;
2024/03/07 00:22:56;;;;;;;10.1;7.9;;;;;;;;;;;;;
2024/03/07 00:25:22;;;;;;;9.9;7.3;;;;;;;;;;;;;
2024/03/07 00:27:46;;;;;;;11.5;8.5;;;;;;;;;;;;;
2024/03/07 00:30:13;;;;;;;12.9;9.9;;;;;;;;;;;;;
2024/03/07 00:32:39;;;;;;;13.8;9.8;;;;;;;;;;;;;
2024/03/07 00:35:02;;;;;;;11;8.1;;;;;;;;;;;;;
2024/03/07 00:37:27;;;;;;;10.4;8;;;;;;;;;;;;;
2024/03/07 00:39:52;;;;;;;10.3;7.9;;;;;;;;;;;;;
2024/03/07 00:42:17;;;;;;;10.8;7.4;;;;;;;;;;;;;
2024/03/07 00:44:43;;;;;;;9.9;7.2;;;;;;;;;;;;;
2024/03/07 00:47:07;;;;;;;9.1;7.3;;;;;;;;;;;;;
2024/03/07 00:49:32;;;;;;;9.7;7.8;;;;;;;;;;;;;
2024/03/07 00:51:57;;;;;;;12.8;9.5;;;;;;;;;;;;;
2024/03/07 00:54:22;;;;;;;13.8;9.9;;;;;;;;;;;;;
2024/03/07 00:56:49;;;;;;;10.9;8;;;;;;;;;;;;;
2024/03/07 00:59:14;;;;;;;10;7.9;;;;;;;;;;;;;
2024/03/07 01:01:38;;;;;;;10.4;8.1;;;;;;;;;;;;;
2024/03/07 01:04:03;;;;;;;10.2;7.9;;;;;;;;;;;;;
2024/03/07 01:06:28;;;;;;;11.3;8.5;;;;;;;;;;;;;
2024/03/07 01:08:53;;;;;;;11.5;8.5;;;;;;;;;;;;;
2024/03/07 01:11:18;;;;;;;13.8;9.3;;;;;;;;;;;;;
2024/03/07 01:13:44;;;;;;;13;9.6;;;;;;;;;;;;;
2024/03/07 01:16:08;;;;;;;15.7;10.5;;;;;;;;;;;;;
2024/03/07 01:18:34;;;;;;;12.9;9.7;;;;;;;;;;;;;
2024/03/07 01:20:59;;;;;;;14.5;10;;;;;;;;;;;;;
2024/03/07 01:23:24;;;;;;;14.2;10.3;;;;;;;;;;;;;
2024/03/07 01:25:49;;;;;;;13.8;9.6;;;;;;;;;;;;;
2024/03/07 01:28:14;;;;;;;13.8;9.8;;;;;;;;;;;;;
2024/03/07 01:30:39;;;;;;;15;10.5;;;;;;;;;;;;;
2024/03/07 01:33:04;;;;;;;14.3;9.9;;;;;;;;;;;;;
2024/03/07 01:35:29;;;;;;;13.6;9.7;;;;;;;;;;;;;
2024/03/07 01:37:54;;;;;;;15.3;10;;;;;;;;;;;;;
2024/03/07 01:40:20;;;;;;;13.2;9.2;;;;;;;;;;;;;
2024/03/07 01:42:45;;;;;;;13.1;9.6;;;;;;;;;;;;;
2024/03/07 01:45:10;;;;;;;12.5;9.4;;;;;;;;;;;;;
2024/03/07 01:47:36;;;;;;;14.2;9.5;;;;;;;;;;;;;
2024/03/07 01:50:01;;;;;;;14.2;9.6;;;;;;;;;;;;;
2024/03/07 01:52:25;;;;;;;13;8.9;;;;;;;;;;;;;
2024/03/07 01:54:50;;;;;;;13;9;;;;;;;;;;;;;
2024/03/07 01:57:16;;;;;;;13.2;9.3;;;;;;;;;;;;;
2024/03/07 01:59:41;;;;;;;12.8;9.7;;;;;;;;;;;;;
2024/03/07 02:02:06;;;;;;;14.9;9.6;;;;;;;;;;;;;
2024/03/07 02:04:31;;;;;;;14.9;9.7;;;;;;;;;;;;;
2024/03/07 02:06:56;;;;;;;14;9.9;;;;;;;;;;;;;
2024/03/07 02:09:21;;;;;;;16.8;11.1;;;;;;;;;;;;;
2024/03/07 02:11:47;;;;;;;15.7;10.7;;;;;;;;;;;;;
2024/03/07 02:14:12;;;;;;;15.6;10.4;;;;;;;;;;;;;
2024/03/07 02:16:37;;;;;;;14.8;10.8;;;;;;;;;;;;;
2024/03/07 02:19:02;;;;;;;14.9;10;;;;;;;;;;;;;
2024/03/07 02:21:27;;;;;;;15.8;10.9;;;;;;;;;;;;;
2024/03/07 02:23:52;;;;;;;15.7;11.3;;;;;;;;;;;;;
2024/03/07 02:26:18;;;;;;;15.5;10.7;;;;;;;;;;;;;
2024/03/07 02:28:42;;;;;;;14.4;10.5;;;;;;;;;;;;;
2024/03/07 02:31:07;;;;;;;15.4;11;;;;;;;;;;;;;
2024/03/07 02:33:33;;;;;;;15.2;10.5;;;;;;;;;;;;;
2024/03/07 02:35:57;;;;;;;16.4;11.2;;;;;;;;;;;;;
2024/03/07 02:38:22;;;;;;;15.6;11.1;;;;;;;;;;;;;
2024/03/07 02:40:48;;;;;;;16;10.9;;;;;;;;;;;;;
2024/03/07 02:43:12;;;;;;;15.2;10.7;;;;;;;;;;;;;
2024/03/07 02:45:38;;;;;;;15.4;10.1;;;;;;;;;;;;;
2024/03/07 02:48:04;;;;;;;13.7;10.2;;;;;;;;;;;;;
2024/03/07 02:50:28;;;;;;;14.9;9.8;;;;;;;;;;;;;
2024/03/07 02:52:53;;;;;;;15;9.7;;;;;;;;;;;;;
2024/03/07 02:55:18;;;;;;;14.3;9.5;;;;;;;;;;;;;
2024/03/07 02:57:43;;;;;;;14.1;9.9;;;;;;;;;;;;;
2024/03/07 03:00:19;;;;;;;13.2;9.7;;;;;;;;;;;;;
2024/03/07 03:02:33;;;;;;;13;9.5;;;;;;;;;;;;;
2024/03/07 03:04:58;;;;;;;13.6;9.2;;;;;;;;;;;;;
2024/03/07 03:07:24;;;;;;;12.6;9.2;;;;;;;;;;;;;
2024/03/07 03:09:49;;;;;;;13.5;9.6;;;;;;;;;;;;;
2024/03/07 03:12:14;;;;;;;13.4;9;;;;;;;;;;;;;
2024/03/07 03:14:39;;;;;;;13.7;9.6;;;;;;;;;;;;;
2024/03/07 03:17:04;;;;;;;12.6;9.4;;;;;;;;;;;;;
2024/03/07 03:19:29;;;;;;;12.1;9;;;;;;;;;;;;;
2024/03/07 03:21:55;;;;;;;14;9.1;;;;;;;;;;;;;
2024/03/07 03:24:20;;;;;;;16;11;;;;;;;;;;;;;
2024/03/07 03:26:44;;;;;;;16.6;10.4;;;;;;;;;;;;;
2024/03/07 03:29:11;;;;;;;14.1;9.6;;;;;;;;;;;;;
2024/03/07 03:31:35;;;;;;;11.6;8.8;;;;;;;;;;;;;
2024/03/07 03:34:00;;;;;;;11.3;7.9;;;;;;;;;;;;;
2024/03/07 03:36:25;;;;;;;10.6;7.7;;;;;;;;;;;;;
2024/03/07 03:38:50;;;;;;;10.5;7.8;;;;;;;;;;;;;
2024/03/07 03:41:15;;;;;;;10.5;7.5;;;;;;;;;;;;;
2024/03/07 03:43:40;;;;;;;12;8.2;;;;;;;;;;;;;
2024/03/07 03:46:05;;;;;;;10.5;7.6;;;;;;;;;;;;;
2024/03/07 03:48:30;;;;;;;12.4;8.4;;;;;;;;;;;;;
2024/03/07 03:50:55;;;;;;;11.5;8.2;;;;;;;;;;;;;
2024/03/07 03:53:21;;;;;;;12.6;8.9;;;;;;;;;;;;;
2024/03/07 03:55:46;;;;;;;11.4;7.7;;;;;;;;;;;;;
2024/03/07 03:58:11;;;;;;;12.1;8.5;;;;;;;;;;;;;
2024/03/07 04:02:28;;;;;;;14.7;9.4;;;;;;;;;;;;;
2024/03/07 04:04:54;;;;;;;12.6;8.7;;;;;;;;;;;;;
2024/03/07 04:07:18;;;;;;;13;8.6;;;;;;;;;;;;;
2024/03/07 04:09:44;;;;;;;13.4;9;;;;;;;;;;;;;
2024/03/07 04:12:10;;;;;;;12;8.5;;;;;;;;;;;;;
2024/03/07 04:14:35;;;;;;;12.9;9.3;;;;;;;;;;;;;
2024/03/07 04:16:59;;;;;;;11.9;8.5;;;;;;;;;;;;;
2024/03/07 04:19:25;;;;;;;13.3;9.1;;;;;;;;;;;;;
2024/03/07 04:21:49;;;;;;;12.9;9.8;;;;;;;;;;;;;
2024/03/07 04:24:14;;;;;;;13.2;9.4;;;;;;;;;;;;;
2024/03/07 04:26:41;;;;;;;13.4;9.7;;;;;;;;;;;;;
2024/03/07 04:29:05;;;;;;;13.4;9.5;;;;;;;;;;;;;
2024/03/07 04:31:30;;;;;;;14;9.2;;;;;;;;;;;;;
2024/03/07 04:33:55;;;;;;;11.8;8.5;;;;;;;;;;;;;
2024/03/07 04:36:20;;;;;;;12.5;8.7;;;;;;;;;;;;;
2024/03/07 04:38:45;;;;;;;14;9.5;;;;;;;;;;;;;
2024/03/07 04:41:10;;;;;;;12.9;9.4;;;;;;;;;;;;;
2024/03/07 04:43:35;;;;;;;14.3;9.5;;;;;;;;;;;;;
2024/03/07 04:46:00;;;;;;;12.7;8.4;;;;;;;;;;;;;
2024/03/07 04:48:25;;;;;;;9.6;7.2;;;;;;;;;;;;;
2024/03/07 04:50:50;;;;;;;10.8;8;;;;;;;;;;;;;
2024/03/07 04:53:15;;;;;;;11.8;8.7;;;;;;;;;;;;;
2024/03/07 04:55:40;;;;;;;14.7;9.8;;;;;;;;;;;;;
2024/03/07 04:58:06;;;;;;;15.2;11;;;;;;;;;;;;;
2024/03/07 05:00:31;;;;;;;16.2;11.1;;;;;;;;;;;;;
2024/03/07 05:02:56;;;;;;;16.1;10.9;;;;;;;;;;;;;
2024/03/07 05:05:22;;;;;;;15.4;10.2;;;;;;;;;;;;;
2024/03/07 05:07:46;;;;;;;10.8;8.8;;;;;;;;;;;;;
2024/03/07 05:10:11;;;;;;;13.5;9.4;;;;;;;;;;;;;
2024/03/07 05:12:36;;;;;;;13.3;9.2;;;;;;;;;;;;;
2024/03/07 05:15:03;;;;;;;13.5;9.6;;;;;;;;;;;;;
2024/03/07 05:17:28;;;;;;;13.2;10.1;;;;;;;;;;;;;
2024/03/07 05:19:52;;;;;;;14.4;9.1;;;;;;;;;;;;;
2024/03/07 05:22:20;;;;;;;14.3;10;;;;;;;;;;;;;
2024/03/07 05:24:42;;;;;;;14.9;9.8;;;;;;;;;;;;;
2024/03/07 05:27:07;;;;;;;13;9.3;;;;;;;;;;;;;
2024/03/07 05:29:32;;;;;;;14.1;9.6;;;;;;;;;;;;;
2024/03/07 05:31:57;;;;;;;14.6;10.3;;;;;;;;;;;;;
2024/03/07 05:34:23;;;;;;;16.3;10.4;;;;;;;;;;;;;
2024/03/07 05:36:47;;;;;;;15;10.5;;;;;;;;;;;;;
2024/03/07 05:39:13;;;;;;;15.3;10.7;;;;;;;;;;;;;
2024/03/07 05:41:38;;;;;;;14.8;10.2;;;;;;;;;;;;;
2024/03/07 05:44:04;;;;;;;17.4;10.7;;;;;;;;;;;;;
2024/03/07 05:46:28;;;;;;;14.2;10.1;;;;;;;;;;;;;
2024/03/07 05:48:56;;;;;;;13.5;9.7;;;;;;;;;;;;;
2024/03/07 05:51:18;;;;;;;14.8;10.6;;;;;;;;;;;;;
2024/03/07 05:53:43;;;;;;;16.1;10.4;;;;;;;;;;;;;
2024/03/07 05:56:09;;;;;;;13.6;9.8;;;;;;;;;;;;;
2024/03/07 05:58:34;;;;;;;14.2;10.1;;;;;;;;;;;;;
2024/03/07 06:00:58;;;;;;;14.2;9.8;;;;;;;;;;;;;
2024/03/07 06:03:25;;;;;;;14.7;9.4;;;;;;;;;;;;;
2024/03/07 06:05:49;;;;;;;13.8;9.7;;;;;;;;;;;;;
2024/03/07 06:08:16;;;;;;;13.2;9.4;;;;;;;;;;;;;
2024/03/07 06:10:40;;;;;;;16.5;10.9;;;;;;;;;;;;;
2024/03/07 06:13:04;;;;;;;18;11.5;;;;;;;;;;;;;
2024/03/07 06:15:29;;;;;;;18;11.7;;;;;;;;;;;;;
2024/03/07 06:17:54;;;;;;;19.8;12.2;;;;;;;;;;;;;
2024/03/07 06:20:24;;;;;;;17.1;11.9;;;;;;;;;;;;;
2024/03/07 06:22:45;;;;;;;17.7;11.7;;;;;;;;;;;;;
2024/03/07 06:25:18;;;;;;;17.9;12;;;;;;;;;;;;;
2024/03/07 06:27:38;;;;;;;18.2;11.9;;;;;;;;;;;;;
2024/03/07 06:30:00;;;;;;;18.4;12.4;;;;;;;;;;;;;
2024/03/07 06:32:25;;;;;;;18.6;12.5;;;;;;;;;;;;;
2024/03/07 06:34:50;;;;;;;19.1;12.6;;;;;;;;;;;;;
2024/03/07 06:37:15;;;;;;;19;12.2;;;;;;;;;;;;;
2024/03/07 06:39:40;;;;;;;18.1;12.4;;;;;;;;;;;;;
2024/03/07 06:42:05;;;;;;;16;11.1;;;;;;;;;;;;;
2024/03/07 06:44:30;;;;;;;16.4;11.2;;;;;;;;;;;;;
2024/03/07 06:46:58;;;;;;;18.2;11.6;;;;;;;;;;;;;
2024/03/07 06:49:21;;;;;;;17.7;11.8;;;;;;;;;;;;;
2024/03/07 06:51:46;;;;;;;19.6;11.7;;;;;;;;;;;;;
2024/03/07 06:54:11;;;;;;;18.5;12;;;;;;;;;;;;;
2024/03/07 06:56:36;;;;;;;19;12.4;;;;;;;;;;;;;
2024/03/07 06:59:04;;;;;;;17.3;11.8;;;;;;;;;;;;;
2024/03/07 07:01:28;;;;;;;18.3;12;;;;;;;;;;;;;
2024/03/07 07:03:51;;;;;;;17;11.5;;;;;;;;;;;;;
2024/03/07 07:06:16;;;;;;;19.8;12.9;;;;;;;;;;;;;
2024/03/07 07:08:41;;;;;;;18;11.6;;;;;;;;;;;;;
2024/03/07 07:11:06;;;;;;;19.4;12.4;;;;;;;;;;;;;
2024/03/07 07:13:31;;;;;;;16.9;11;;;;;;;;;;;;;
2024/03/07 07:15:57;;;;;;;17;11.4;;;;;;;;;;;;;
2024/03/07 07:18:23;;;;;;;17.4;11.3;;;;;;;;;;;;;
2024/03/07 07:20:47;;;;;;;16.3;10.9;;;;;;;;;;;;;
2024/03/07 07:23:13;;;;;;;15.7;10;;;;;;;;;;;;;
2024/03/07 07:25:37;;;;;;;16.2;10.3;;;;;;;;;;;;;
2024/03/07 07:28:04;;;;;;;16.1;10;;;;;;;;;;;;;
2024/03/07 07:30:28;;;;;;;17.6;11;;;;;;;;;;;;;
2024/03/07 07:32:53;;;;;;;17.9;10.1;;;;;;;;;;;;;
2024/03/07 07:35:17;;;;;;;15.4;10;;;;;;;;;;;;;
2024/03/07 07:37:42;;;;;;;16.9;10;;;;;;;;;;;;;
2024/03/07 07:40:12;;;;;;;18.1;9.6;;;;;;;;;;;;;
2024/03/07 07:42:33;;;;;;;16.4;9.6;;;;;;;;;;;;;
2024/03/07 07:44:58;;;;;;;16.7;9.8;;;;;;;;;;;;;
2024/03/07 07:47:23;;;;;;;17.5;9.7;;;;;;;;;;;;;
2024/03/07 07:49:48;;;;;;;15.8;10.1;;;;;;;;;;;;;
2024/03/07 07:52:15;;;;;;;13.6;8.7;;;;;;;;;;;;;
2024/03/07 07:54:38;;;;;;;13.9;9.1;;;;;;;;;;;;;
2024/03/07 07:57:03;;;;;;;13.2;8.3;;;;;;;;;;;;;
2024/03/07 07:59:28;;;;;;;13.8;8.6;;;;;;;;;;;;;
2024/03/07 08:01:55;;;;;;;14.5;8.6;;;;;;;;;;;;;
2024/03/07 08:04:18;;;;;;;15.4;10;;;;;;;;;;;;;
2024/03/07 08:06:44;;;;;;;15.1;9.3;;;;;;;;;;;;;
2024/03/07 08:09:09;;;;;;;14.9;9.5;;;;;;;;;;;;;
2024/03/07 08:11:34;;;;;;;13.1;8.9;;;;;;;;;;;;;
2024/03/07 08:13:59;;;;;;;16.4;9.1;;;;;;;;;;;;;
2024/03/07 08:16:24;;;;;;;14;8.6;;;;;;;;;;;;;
2024/03/07 08:18:49;;;;;;;15.3;9.3;;;;;;;;;;;;;
2024/03/07 08:21:14;;;;;;;16.2;9.9;;;;;;;;;;;;;
2024/03/07 08:23:39;;;;;;;16.4;9.4;;;;;;;;;;;;;
2024/03/07 08:26:05;;;;;;;15.5;9.3;;;;;;;;;;;;;
2024/03/07 08:28:30;;;;;;;15.2;9.6;;;;;;;;;;;;;
2024/03/07 08:30:55;;;;;;;16.9;11.1;;;;;;;;;;;;;
2024/03/07 08:33:21;;;;;;;19.8;14.9;;;;;;;;;;;;;
2024/03/07 08:35:45;;;;;;;24.9;18;;;;;;;;;;;;;
2024/03/07 08:38:12;;;;;;;15.5;10.1;;;;;;;;;;;;;
2024/03/07 08:40:35;;;;;;;15.8;9.7;;;;;;;;;;;;;
2024/03/07 08:43:00;;;;;;;15.2;9.5;;;;;;;;;;;;;
2024/03/07 08:45:25;;;;;;;14.2;9.1;;;;;;;;;;;;;
2024/03/07 08:47:50;;;;;;;14.9;9;;;;;;;;;;;;;
2024/03/07 08:50:17;;;;;;;14.7;9.1;;;;;;;;;;;;;
2024/03/07 08:52:42;;;;;;;14.4;9.4;;;;;;;;;;;;;
2024/03/07 08:55:06;;;;;;;12.9;9;;;;;;;;;;;;;
2024/03/07 08:57:31;;;;;;;12.4;8.5;;;;;;;;;;;;;
2024/03/07 08:59:56;;;;;;;13.1;8.6;;;;;;;;;;;;;
2024/03/07 09:02:21;;;;;;;15;9.3;;;;;;;;;;;;;
2024/03/07 09:04:46;;;;;;;15;9.1;;;;;;;;;;;;;
2024/03/07 09:07:11;;;;;;;14.3;9;;;;;;;;;;;;;
2024/03/07 09:09:36;;;;;;;14.2;8.3;;;;;;;;;;;;;
2024/03/07 09:12:02;;;;;;;13.4;7.9;;;;;;;;;;;;;
2024/03/07 09:14:27;;;;;;;10.3;6.8;;;;;;;;;;;;;
2024/03/07 09:16:53;;;;;;;9.3;6;;;;;;;;;;;;;
2024/03/07 09:19:20;;;;;;;9.5;6.1;;;;;;;;;;;;;
2024/03/07 09:21:42;;;;;;;9.5;5.9;;;;;;;;;;;;;
2024/03/07 09:24:08;;;;;;;8.7;5.7;;;;;;;;;;;;;
2024/03/07 09:26:33;;;;;;;12.9;6.8;;;;;;;;;;;;;
2024/03/07 09:28:58;;;;;;;9.7;6.8;;;;;;;;;;;;;
2024/03/07 09:31:23;;;;;;;10.7;6.6;;;;;;;;;;;;;
2024/03/07 09:33:48;;;;;;;9.4;5.8;;;;;;;;;;;;;
2024/03/07 09:36:14;;;;;;;9.7;6.3;;;;;;;;;;;;;
2024/03/07 09:38:38;;;;;;;9.1;5.6;;;;;;;;;;;;;
2024/03/07 09:41:03;;;;;;;7.5;5.4;;;;;;;;;;;;;
2024/03/07 09:43:28;;;;;;;6.8;4.4;;;;;;;;;;;;;
2024/03/07 09:45:53;;;;;;;6.2;4.2;;;;;;;;;;;;;
2024/03/07 09:48:19;;;;;;;10.5;6.1;;;;;;;;;;;;;
2024/03/07 09:50:43;;;;;;;7.6;5.7;;;;;;;;;;;;;
2024/03/07 09:53:09;;;;;;;9.1;6.2;;;;;;;;;;;;;
2024/03/07 09:55:34;;;;;;;8.7;6;;;;;;;;;;;;;
2024/03/07 09:57:59;;;;;;;9;6;;;;;;;;;;;;;
2024/03/07 10:00:25;;;;;;;10.8;6.7;;;;;;;;;;;;;
2024/03/07 10:02:49;;;;;;;9.4;6.1;;;;;;;;;;;;;
2024/03/07 10:05:14;;;;;;;9.5;6.7;;;;;;;;;;;;;
2024/03/07 10:07:39;;;;;;;10.7;6.5;;;;;;;;;;;;;
2024/03/07 10:10:09;;;;;;;10.1;7.1;;;;;;;;;;;;;
2024/03/07 10:12:31;;;;;;;10.9;6.9;;;;;;;;;;;;;
2024/03/07 10:14:54;;;;;;;9.9;6.7;;;;;;;;;;;;;
2024/03/07 10:17:21;;;;;;;12.1;7.5;;;;;;;;;;;;;
2024/03/07 10:19:45;;;;;;;12.2;7.4;;;;;;;;;;;;;
2024/03/07 10:22:10;;;;;;;10.7;7.2;;;;;;;;;;;;;
2024/03/07 10:24:35;;;;;;;9.7;6.6;;;;;;;;;;;;;
2024/03/07 10:27:00;;;;;;;11.1;7.1;;;;;;;;;;;;;
2024/03/07 10:29:25;;;;;;;13.7;7.3;;;;;;;;;;;;;
2024/03/07 10:31:50;;;;;;;13.4;7.6;;;;;;;;;;;;;
2024/03/07 10:34:16;;;;;;;12.8;7.7;;;;;;;;;;;;;
2024/03/07 10:36:43;;;;;;;12;7;;;;;;;;;;;;;
2024/03/07 10:39:14;;;;;;;12.5;7.8;;;;;;;;;;;;;
2024/03/07 10:41:32;;;;;;;14.2;8.6;;;;;;;;;;;;;
2024/03/07 10:43:56;;;;;;;12.1;7.8;;;;;;;;;;;;;
2024/03/07 10:46:21;;;;;;;12.5;7.3;;;;;;;;;;;;;
2024/03/07 10:48:46;;;;;;;11.6;7.1;;;;;;;;;;;;;
2024/03/07 10:51:13;;;;;;;10.8;6.9;;;;;;;;;;;;;
2024/03/07 10:53:36;;;;;;;11.3;6.8;;;;;;;;;;;;;
2024/03/07 10:56:01;;;;;;;12.4;7.1;;;;;;;;;;;;;
2024/03/07 10:58:27;;;;;;;12.5;7.2;;;;;;;;;;;;;
2024/03/07 11:00:51;;;;;;;11.9;7;;;;;;;;;;;;;
2024/03/07 11:03:20;;;;;;;11.7;7.3;;;;;;;;;;;;;
2024/03/07 11:05:43;;;;;;;11.8;7.2;;;;;;;;;;;;;
2024/03/07 11:08:11;;;;;;;12.3;7.5;;;;;;;;;;;;;
2024/03/07 11:10:32;;;;;;;11;6.5;;;;;;;;;;;;;
2024/03/07 11:12:57;;;;;;;10.9;6.5;;;;;;;;;;;;;
2024/03/07 11:15:22;;;;;;;10.4;6.3;;;;;;;;;;;;;
2024/03/07 11:17:48;;;;;;;7.8;5.2;;;;;;;;;;;;;
2024/03/07 11:20:16;;;;;;;9.2;5.7;;;;;;;;;;;;;
2024/03/07 11:22:38;;;;;;;8.5;5.2;;;;;;;;;;;;;
2024/03/07 11:25:06;;;;;;;8.4;5.8;;;;;;;;;;;;;
2024/03/07 11:27:29;;;;;;;9.5;6;;;;;;;;;;;;;
2024/03/07 11:29:54;;;;;;;8.1;5.4;;;;;;;;;;;;;
2024/03/07 11:32:20;;;;;;;8.5;5.1;;;;;;;;;;;;;
2024/03/07 11:34:46;;;;;;;7.3;5.4;;;;;;;;;;;;;
2024/03/07 11:37:17;;;;;;;8.3;5;;;;;;;;;;;;;
2024/03/07 11:39:36;;;;;;;8.2;5;;;;;;;;;;;;;
2024/03/07 11:41:58;;;;;;;7.4;4.8;;;;;;;;;;;;;
2024/03/07 11:46:25;;;;;;;7.2;4.8;;;;;;;;;;;;;
2024/03/07 11:48:50;;;;;;;10.5;5.8;;;;;;;;;;;;;
2024/03/07 11:51:15;;;;;;;9.4;5.7;;;;;;;;;;;;;
2024/03/07 11:53:41;;;;;;;6.1;4.1;;;;;;;;;;;;;
2024/03/07 11:56:09;;;;;;;7.6;4.4;;;;;;;;;;;;;
2024/03/07 11:58:31;;;;;;;6.6;4.7;;;;;;;;;;;;;
2024/03/07 12:00:58;;;;;;;5.7;4.2;;;;;;;;;;;;;
2024/03/07 12:03:21;;;;;;;6.3;4.7;;;;;;;;;;;;;
2024/03/07 12:05:46;;;;;;;7.5;5;;;;;;;;;;;;;
2024/03/07 12:08:29;;;;;;;5.9;4.4;;;;;;;;;;;;;
2024/03/07 12:11:03;;;;;;;8.4;4.8;;;;;;;;;;;;;
2024/03/07 12:13:36;;;;;;;6.5;4.5;;;;;;;;;;;;;
2024/03/07 12:16:09;;;;;;;7.6;4.7;;;;;;;;;;;;;
2024/03/07 12:18:44;;;;;;;8.6;5.1;;;;;;;;;;;;;
2024/03/07 12:21:17;;;;;;;7.8;4.9;;;;;;;;;;;;;
2024/03/07 12:23:49;;;;;;;7.5;5.1;;;;;;;;;;;;;
2024/03/07 12:26:25;;;;;;;6.3;4.4;;;;;;;;;;;;;
2024/03/07 12:28:59;;;;;;;7;4.8;;;;;;;;;;;;;
2024/03/07 12:31:38;;;;;;;7.5;5;;;;;;;;;;;;;
2024/03/07 12:34:11;;;;;;;9.8;5;;;;;;;;;;;;;
2024/03/07 12:36:45;;;;;;;7.7;5.1;;;;;;;;;;;;;
2024/03/07 12:39:09;;;;;;;10.5;5.9;;;;;;;;;;;;;
2024/03/07 12:41:26;;;;;;;7.8;5.1;;;;;;;;;;;;;
2024/03/07 12:43:51;;;;;;;8.2;5.6;;;;;;;;;;;;;
2024/03/07 12:46:19;;;;;;;7.8;5.2;;;;;;;;;;;;;
2024/03/07 12:48:44;;;;;;;7.9;5.2;;;;;;;;;;;;;
2024/03/07 12:51:16;;;;;;;8.1;5.6;;;;;;;;;;;;;
2024/03/07 12:53:42;;;;;;;8.2;4.9;;;;;;;;;;;;;
2024/03/07 12:56:17;;;;;;;7.6;5;;;;;;;;;;;;;
2024/03/07 12:59:13;;;;;;;8.6;5.7;;;;;;;;;;;;;
2024/03/07 13:01:39;;;;;;;8.9;5.6;;;;;;;;;;;;;
2024/03/07 13:04:04;;;;;;;7.9;5.4;;;;;;;;;;;;;
2024/03/07 13:06:29;;;;;;;8.2;5.5;;;;;;;;;;;;;
2024/03/07 13:08:53;;;;;;;8.1;5.4;;;;;;;;;;;;;
2024/03/07 13:11:18;;;;;;;6.8;4.6;;;;;;;;;;;;;
2024/03/07 13:13:43;;;;;;;7;4.8;;;;;;;;;;;;;
2024/03/07 13:16:09;;;;;;;7.6;4.9;;;;;;;;;;;;;
2024/03/07 13:18:34;;;;;;;7.3;4.8;;;;;;;;;;;;;
2024/03/07 13:20:59;;;;;;;6.3;4.2;;;;;;;;;;;;;
2024/03/07 13:23:27;;;;;;;7.7;4.5;;;;;;;;;;;;;
2024/03/07 13:25:49;;;;;;;7;4.7;;;;;;;;;;;;;
2024/03/07 13:28:16;;;;;;;6.9;4.6;;;;;;;;;;;;;
2024/03/07 13:30:39;;;;;;;7.8;5.6;;;;;;;;;;;;;
2024/03/07 13:33:05;;;;;;;8.7;5.9;;;;;;;;;;;;;
2024/03/07 13:35:29;;;;;;;9.9;6.5;;;;;;;;;;;;;
2024/03/07 13:37:56;;;;;;;9.4;6.5;;;;;;;;;;;;;
2024/03/07 13:40:25;;;;;;;10.5;6.7;;;;;;;;;;;;;
2024/03/07 13:42:44;;;;;;;10.8;6.8;;;;;;;;;;;;;
2024/03/07 13:45:12;;;;;;;9.9;6.6;;;;;;;;;;;;;
2024/03/07 13:47:34;;;;;;;11.1;6.8;;;;;;;;;;;;;
2024/03/07 13:50:00;;;;;;;11.4;6.7;;;;;;;;;;;;;
2024/03/07 13:52:26;;;;;;;11;6.8;;;;;;;;;;;;;
2024/03/07 13:54:53;;;;;;;11.6;7.3;;;;;;;;;;;;;
2024/03/07 13:57:16;;;;;;;10.4;7.1;;;;;;;;;;;;;
2024/03/07 13:59:41;;;;;;;12.8;7.7;;;;;;;;;;;;;
2024/03/07 14:02:06;;;;;;;11.6;7.8;;;;;;;;;;;;;
2024/03/07 14:04:30;;;;;;;12.2;8.1;;;;;;;;;;;;;
2024/03/07 14:06:55;;;;;;;12.5;8.4;;;;;;;;;;;;;
2024/03/07 14:09:20;;;;;;;13.9;8.2;;;;;;;;;;;;;
2024/03/07 14:11:46;;;;;;;13.3;8.8;;;;;;;;;;;;;
2024/03/07 14:14:11;;;;;;;14.8;8.7;;;;;;;;;;;;;
2024/03/07 14:16:36;;;;;;;12.7;8.8;;;;;;;;;;;;;
2024/03/07 14:19:01;;;;;;;12.1;8.2;;;;;;;;;;;;;
2024/03/07 14:21:26;;;;;;;13.9;8.7;;;;;;;;;;;;;
2024/03/07 14:23:51;;;;;;;13.6;8.4;;;;;;;;;;;;;
2024/03/07 14:26:19;;;;;;;14.1;9.7;;;;;;;;;;;;;
2024/03/07 14:28:43;;;;;;;16.2;9.4;;;;;;;;;;;;;
2024/03/07 14:31:11;;;;;;;14.2;9.9;;;;;;;;;;;;;
2024/03/07 14:33:33;;;;;;;15;9.7;;;;;;;;;;;;;
2024/03/07 14:35:57;;;;;;;15.7;10.2;;;;;;;;;;;;;
2024/03/07 14:38:23;;;;;;;16.3;10.4;;;;;;;;;;;;;
2024/03/07 14:40:49;;;;;;;15.3;10.9;;;;;;;;;;;;;
2024/03/07 14:43:12;;;;;;;15.1;10.1;;;;;;;;;;;;;
2024/03/07 14:45:38;;;;;;;14.8;9.9;;;;;;;;;;;;;
2024/03/07 14:48:03;;;;;;;15.2;10.5;;;;;;;;;;;;;
2024/03/07 14:50:28;;;;;;;15.4;9.8;;;;;;;;;;;;;
2024/03/07 14:52:53;;;;;;;16;10.2;;;;;;;;;;;;;
2024/03/07 14:55:19;;;;;;;14.5;10.2;;;;;;;;;;;;;
2024/03/07 14:57:45;;;;;;;17.6;10.6;;;;;;;;;;;;;
2024/03/07 15:00:17;;;;;;;16.8;10.9;;;;;;;;;;;;;
2024/03/07 15:02:37;;;;;;;17.5;11;;;;;;;;;;;;;
2024/03/07 15:04:58;;;;;;;15.7;10.5;;;;;;;;;;;;;
2024/03/07 15:07:24;;;;;;;15.9;10.3;;;;;;;;;;;;;
2024/03/07 15:09:49;;;;;;;16.6;10.9;;;;;;;;;;;;;
2024/03/07 15:12:14;;;;;;;16.8;10.8;;;;;;;;;;;;;
2024/03/07 15:14:40;;;;;;;15.4;10.5;;;;;;;;;;;;;
2024/03/07 15:17:06;;;;;;;17.9;11.1;;;;;;;;;;;;;
2024/03/07 15:19:31;;;;;;;16.2;10.2;;;;;;;;;;;;;
2024/03/07 15:21:56;;;;;;;16.6;11.2;;;;;;;;;;;;;
2024/03/07 15:24:21;;;;;;;19.4;11.8;;;;;;;;;;;;;
2024/03/07 15:26:46;;;;;;;17.6;11.5;;;;;;;;;;;;;
2024/03/07 15:29:11;;;;;;;20.3;12.5;;;;;;;;;;;;;
2024/03/07 15:31:36;;;;;;;17.5;11.1;;;;;;;;;;;;;
2024/03/07 15:34:03;;;;;;;19.4;12.3;;;;;;;;;;;;;
2024/03/07 15:36:27;;;;;;;19.8;12.5;;;;;;;;;;;;;
2024/03/07 15:38:51;;;;;;;20.7;12.8;;;;;;;;;;;;;
2024/03/07 15:41:16;;;;;;;18.8;12.6;;;;;;;;;;;;;
2024/03/07 15:43:43;;;;;;;19.3;12;;;;;;;;;;;;;
2024/03/07 15:46:07;;;;;;;18.7;12.1;;;;;;;;;;;;;
2024/03/07 15:48:32;;;;;;;19.5;12.1;;;;;;;;;;;;;
2024/03/07 15:50:57;;;;;;;20.6;11.7;;;;;;;;;;;;;
2024/03/07 15:53:22;;;;;;;18.4;12.3;;;;;;;;;;;;;
2024/03/07 15:55:47;;;;;;;19.5;11.9;;;;;;;;;;;;;
2024/03/07 15:58:17;;;;;;;19.1;12.4;;;;;;;;;;;;;
2024/03/07 16:00:38;;;;;;;20.7;12.4;;;;;;;;;;;;;
2024/03/07 16:03:03;;;;;;;22;13.1;;;;;;;;;;;;;
2024/03/07 16:05:28;;;;;;;20.9;13.8;;;;;;;;;;;;;
2024/03/07 16:07:53;;;;;;;21.4;13.1;;;;;;;;;;;;;
2024/03/07 16:10:18;;;;;;;21.3;13.4;;;;;;;;;;;;;
2024/03/07 16:12:43;;;;;;;19.1;12.5;;;;;;;;;;;;;
2024/03/07 16:15:09;;;;;;;21.7;13.1;;;;;;;;;;;;;
2024/03/07 16:17:33;;;;;;;24.3;13.3;;;;;;;;;;;;;
2024/03/07 16:19:58;;;;;;;21.9;13.3;;;;;;;;;;;;;
2024/03/07 16:22:24;;;;;;;17.7;11.9;;;;;;;;;;;;;
2024/03/07 16:24:48;;;;;;;18.9;12.5;;;;;;;;;;;;;
2024/03/07 16:27:15;;;;;;;21.3;13;;;;;;;;;;;;;
2024/03/07 16:29:39;;;;;;;21.3;12.6;;;;;;;;;;;;;
2024/03/07 16:32:05;;;;;;;23.4;13.4;;;;;;;;;;;;;
2024/03/07 16:34:29;;;;;;;23.7;13.4;;;;;;;;;;;;;
2024/03/07 16:36:56;;;;;;;19;12.2;;;;;;;;;;;;;
2024/03/07 16:39:19;;;;;;;19.1;11.9;;;;;;;;;;;;;
2024/03/07 16:41:45;;;;;;;19;13.2;;;;;;;;;;;;;
2024/03/07 16:44:10;;;;;;;20.6;13.4;;;;;;;;;;;;;
2024/03/07 16:46:35;;;;;;;19.7;12.6;;;;;;;;;;;;;
2024/03/07 16:49:00;;;;;;;19.5;12.4;;;;;;;;;;;;;
2024/03/07 16:51:26;;;;;;;17.7;11.9;;;;;;;;;;;;;
2024/03/07 16:53:50;;;;;;;19.8;12.3;;;;;;;;;;;;;
2024/03/07 16:56:15;;;;;;;19.8;12.7;;;;;;;;;;;;;
2024/03/07 16:58:40;;;;;;;18.9;12.3;;;;;;;;;;;;;
2024/03/07 17:01:06;;;;;;;18.4;12.5;;;;;;;;;;;;;
2024/03/07 17:03:30;;;;;;;18.3;12.2;;;;;;;;;;;;;
2024/03/07 17:05:56;;;;;;;20.6;12.5;;;;;;;;;;;;;
2024/03/07 17:08:23;;;;;;;18.6;12.2;;;;;;;;;;;;;
2024/03/07 17:10:46;;;;;;;18.9;12.2;;;;;;;;;;;;;
2024/03/07 17:13:11;;;;;;;18.9;12.5;;;;;;;;;;;;;
2024/03/07 17:15:37;;;;;;;18.6;11.6;;;;;;;;;;;;;
2024/03/07 17:18:01;;;;;;;19.2;11.8;;;;;;;;;;;;;
2024/03/07 17:20:27;;;;;;;21.4;12.4;;;;;;;;;;;;;
2024/03/07 17:22:52;;;;;;;19.8;12.2;;;;;;;;;;;;;
2024/03/07 17:25:18;;;;;;;21;13;;;;;;;;;;;;;
2024/03/07 17:27:42;;;;;;;21.6;13.3;;;;;;;;;;;;;
2024/03/07 17:30:07;;;;;;;23.7;13.3;;;;;;;;;;;;;
2024/03/07 17:32:32;;;;;;;21.9;13;;;;;;;;;;;;;
2024/03/07 17:34:59;;;;;;;19.6;13.1;;;;;;;;;;;;;
2024/03/07 17:37:22;;;;;;;20.9;13.2;;;;;;;;;;;;;
2024/03/07 17:39:53;;;;;;;20.7;13.2;;;;;;;;;;;;;
2024/03/07 17:42:12;;;;;;;21.2;13.1;;;;;;;;;;;;;
2024/03/07 17:44:38;;;;;;;21.4;12.9;;;;;;;;;;;;;
2024/03/07 17:47:07;;;;;;;19.8;13.1;;;;;;;;;;;;;
2024/03/07 17:49:28;;;;;;;22.2;13.7;;;;;;;;;;;;;
2024/03/07 17:51:53;;;;;;;22.9;13.5;;;;;;;;;;;;;
2024/03/07 17:54:19;;;;;;;22.5;14;;;;;;;;;;;;;
2024/03/07 17:56:45;;;;;;;21.5;13.6;;;;;;;;;;;;;
2024/03/07 17:59:10;;;;;;;22.3;14;;;;;;;;;;;;;
2024/03/07 18:01:34;;;;;;;22.6;14.1;;;;;;;;;;;;;
2024/03/07 18:03:59;;;;;;;23.1;14.3;;;;;;;;;;;;;
2024/03/07 18:06:24;;;;;;;22;14.2;;;;;;;;;;;;;
2024/03/07 18:08:50;;;;;;;22.3;14.6;;;;;;;;;;;;;
2024/03/07 18:11:14;;;;;;;24.6;14.5;;;;;;;;;;;;;
2024/03/07 18:13:39;;;;;;;24.5;15.1;;;;;;;;;;;;;
2024/03/07 18:16:04;;;;;;;26.1;15;;;;;;;;;;;;;
2024/03/07 18:18:32;;;;;;;26.1;14.9;;;;;;;;;;;;;
2024/03/07 18:20:56;;;;;;;27.1;16.4;;;;;;;;;;;;;
2024/03/07 18:23:20;;;;;;;28.8;17.2;;;;;;;;;;;;;
2024/03/07 18:25:44;;;;;;;25.2;15.1;;;;;;;;;;;;;
2024/03/07 18:28:10;;;;;;;25.2;14.6;;;;;;;;;;;;;
2024/03/07 18:30:35;;;;;;;23.5;15.1;;;;;;;;;;;;;
2024/03/07 18:33:03;;;;;;;23.3;14.8;;;;;;;;;;;;;
2024/03/07 18:35:25;;;;;;;23.2;14.9;;;;;;;;;;;;;
2024/03/07 18:37:51;;;;;;;24.3;14.9;;;;;;;;;;;;;
2024/03/07 18:40:16;;;;;;;23;14.7;;;;;;;;;;;;;
2024/03/07 18:42:42;;;;;;;26.1;15.5;;;;;;;;;;;;;
2024/03/07 18:45:10;;;;;;;25.1;15.1;;;;;;;;;;;;;
2024/03/07 18:47:32;;;;;;;25.2;15.5;;;;;;;;;;;;;
2024/03/07 18:49:57;;;;;;;24.3;15.3;;;;;;;;;;;;;
2024/03/07 18:52:22;;;;;;;26;15.7;;;;;;;;;;;;;
2024/03/07 18:54:47;;;;;;;24.8;15.9;;;;;;;;;;;;;
2024/03/07 18:57:12;;;;;;;27.2;16.9;;;;;;;;;;;;;
2024/03/07 18:59:37;;;;;;;25.9;16.4;;;;;;;;;;;;;
2024/03/07 19:02:02;;;;;;;26.9;15.7;;;;;;;;;;;;;
2024/03/07 19:04:29;;;;;;;24.2;15.9;;;;;;;;;;;;;
2024/03/07 19:06:57;;;;;;;25.2;15.5;;;;;;;;;;;;;
2024/03/07 19:09:22;;;;;;;28.2;17;;;;;;;;;;;;;
2024/03/07 19:11:42;;;;;;;27.8;16.8;;;;;;;;;;;;;
2024/03/07 19:14:10;;;;;;;26;16.8;;;;;;;;;;;;;
2024/03/07 19:16:33;;;;;;;28.7;16.5;;;;;;;;;;;;;
2024/03/07 19:18:58;;;;;;;26.9;16.5;;;;;;;;;;;;;
2024/03/07 19:21:23;;;;;;;27.5;16.6;;;;;;;;;;;;;
2024/03/07 19:23:48;;;;;;;30.3;17.6;;;;;;;;;;;;;
2024/03/07 19:26:15;;;;;;;29.6;18.3;;;;;;;;;;;;;
2024/03/07 19:28:39;;;;;;;28.3;17.1;;;;;;;;;;;;;
2024/03/07 19:31:03;;;;;;;28.2;17.3;;;;;;;;;;;;;
2024/03/07 19:33:30;;;;;;;29.4;17.7;;;;;;;;;;;;;
2024/03/07 19:35:55;;;;;;;28.7;18.4;;;;;;;;;;;;;
2024/03/07 19:38:18;;;;;;;33.2;18.5;;;;;;;;;;;;;
2024/03/07 19:40:44;;;;;;;27.8;17.7;;;;;;;;;;;;;
2024/03/07 19:43:09;;;;;;;32.8;19;;;;;;;;;;;;;
2024/03/07 19:45:35;;;;;;;29.8;18.6;;;;;;;;;;;;;
2024/03/07 19:47:59;;;;;;;32.3;18.9;;;;;;;;;;;;;
2024/03/07 19:50:24;;;;;;;30.6;19;;;;;;;;;;;;;
2024/03/07 19:52:50;;;;;;;29.3;18.8;;;;;;;;;;;;;
2024/03/07 19:55:18;;;;;;;31.6;19.8;;;;;;;;;;;;;
2024/03/07 19:57:41;;;;;;;30.9;19.6;;;;;;;;;;;;;
2024/03/07 20:00:08;;;;;;;32.3;19.6;;;;;;;;;;;;;
2024/03/07 20:02:32;;;;;;;31.1;19.2;;;;;;;;;;;;;
2024/03/07 20:04:57;;;;;;;31.9;19.9;;;;;;;;;;;;;